North Chicago, IL (60064)

5:44 PM CST on February 13, 2016 (GMT -0600)
Great Lakes Naval Station | | Change Station
CLOSE
Current Station
Personal Weather Station
Location: North Chicago, IL
Elevation: 673 ft
Nearby Weather Stations

Elev 673 ft 42.31 °N, 87.83 °W | Updated 7 minutes ago

Clear
Clear
12.0 °F
Feels Like 12 °F
N
1.7
Wind Variable Wind from South

Today
High -- | Low -- °F
--% Chance of Precip.
Yesterday
High -- | Low -- °F
Precip. -- in
Pressure 30.59 in
Visibility 10.0 miles
Clouds Clear
Windchill 12 °F
Dew Point -3 °F
Humidity 51%
Rainfall 0.00 in
Snow Depth Not available.
6:51 AM 5:20 PM
Waxing Crescent, 35% visible
METAR KUGN 132255Z 30004KT 10SM CLR M11/M21 A3050 RMK AO2 SLP358 T11061211
Pressure 30.59 in
Visibility 10.0 miles
Clouds Clear
Windchill 12 °F
Dew Point -3 °F
Humidity 51%
Rainfall 0.00 in
Snow Depth Not available.
6:51 AM 5:20 PM
Waxing Crescent, 35% visible
METAR KUGN 132255Z 30004KT 10SM CLR M11/M21 A3050 RMK AO2 SLP358 T11061211

10-Day Weather Forecast

Almanac

Astronomy

Feb. 13, 2016 Rise Set
Actual Time
Civil Twilight
Nautical Twilight
Astronomical Twilight
Moon
Length of Visible Light
Length of Day
Tomorrow will be .
, % of the Moon is Illuminated

Today's Extremes

State Highs State Lows

Community

WunderPhotos

Upload Photos

1,892,705 photos uploaded!

WunderBlog® & News

Nearby

Air Quality

  Air Quality AQ Index Pollutant
Not available.

Snow Depth

Station Depth Elevation

Earthquake Activity

City Distance Mag. Time & Date
Minimum magnitude displayed is 2.5.

Coastal Water Temperatures

Place Temperature

Stations

Nearby Weather Stations

Station Location Temp. Windchill Dew Point Humidity Wind Precip. Elev Updated Type
                   

Watches & Warnings

There are currently no watches in effect.